sensor_id;sensor_type;location;lat;lon;timestamp;temperature;humidity
17859;DHT22;35426;30.698;104.050;2023-07-02T00:00:08;29.80;99.90
17859;DHT22;35426;30.698;104.050;2023-07-02T00:02:41;29.90;99.90
17859;DHT22;35426;30.698;104.050;2023-07-02T00:05:15;29.90;99.90
17859;DHT22;35426;30.698;104.050;2023-07-02T00:07:48;30.20;99.90
17859;DHT22;35426;30.698;104.050;2023-07-02T00:10:25;30.30;99.90
17859;DHT22;35426;30.698;104.050;2023-07-02T00:12:58;30.50;99.90
17859;DHT22;35426;30.698;104.050;2023-07-02T00:15:32;30.70;99.90
17859;DHT22;35426;30.698;104.050;2023-07-02T00:18:07;30.90;99.90
17859;DHT22;35426;30.698;104.050;2023-07-02T00:20:41;31.10;99.90
17859;DHT22;35426;30.698;104.050;2023-07-02T00:23:14;31.50;99.90
17859;DHT22;35426;30.698;104.050;2023-07-02T00:25:49;31.80;99.90
17859;DHT22;35426;30.698;104.050;2023-07-02T00:28:23;31.80;99.90
17859;DHT22;35426;30.698;104.050;2023-07-02T00:30:56;31.80;99.90
17859;DHT22;35426;30.698;104.050;2023-07-02T00:33:30;31.80;99.90
17859;DHT22;35426;30.698;104.050;2023-07-02T00:36:03;32.00;99.90
17859;DHT22;35426;30.698;104.050;2023-07-02T00:38:36;32.00;99.90
17859;DHT22;35426;30.698;104.050;2023-07-02T00:41:12;32.70;99.90
17859;DHT22;35426;30.698;104.050;2023-07-02T00:43:46;33.60;99.90
17859;DHT22;35426;30.698;104.050;2023-07-02T00:46:19;34.60;99.90
17859;DHT22;35426;30.698;104.050;2023-07-02T00:48:55;35.50;99.90
17859;DHT22;35426;30.698;104.050;2023-07-02T00:51:30;34.60;99.90
17859;DHT22;35426;30.698;104.050;2023-07-02T00:54:05;33.90;99.90
17859;DHT22;35426;30.698;104.050;2023-07-02T00:56:40;33.70;99.90
17859;DHT22;35426;30.698;104.050;2023-07-02T00:59:17;33.50;99.90
17859;DHT22;35426;30.698;104.050;2023-07-02T01:01:50;33.40;99.90
17859;DHT22;35426;30.698;104.050;2023-07-02T01:04:24;33.60;99.90
17859;DHT22;35426;30.698;104.050;2023-07-02T01:06:59;33.60;99.90
17859;DHT22;35426;30.698;104.050;2023-07-02T01:09:33;34.20;99.90
17859;DHT22;35426;30.698;104.050;2023-07-02T01:12:11;35.10;99.90
17859;DHT22;35426;30.698;104.050;2023-07-02T01:14:48;36.40;99.90
17859;DHT22;35426;30.698;104.050;2023-07-02T01:17:25;37.40;99.90
17859;DHT22;35426;30.698;104.050;2023-07-02T01:20:01;38.50;99.90
17859;DHT22;35426;30.698;104.050;2023-07-02T01:22:36;39.60;99.90
17859;DHT22;35426;30.698;104.050;2023-07-02T01:25:10;40.80;99.90
17859;DHT22;35426;30.698;104.050;2023-07-02T01:27:44;41.80;99.90
17859;DHT22;35426;30.698;104.050;2023-07-02T01:30:17;41.40;99.90
17859;DHT22;35426;30.698;104.050;2023-07-02T01:32:51;42.00;99.90
17859;DHT22;35426;30.698;104.050;2023-07-02T01:35:27;41.80;99.90
17859;DHT22;35426;30.698;104.050;2023-07-02T01:38:02;42.10;99.90
17859;DHT22;35426;30.698;104.050;2023-07-02T01:40:36;42.20;99.90
17859;DHT22;35426;30.698;104.050;2023-07-02T01:43:08;41.40;99.90
17859;DHT22;35426;30.698;104.050;2023-07-02T01:45:44;40.10;99.90
17859;DHT22;35426;30.698;104.050;2023-07-02T01:48:21;39.50;99.90
17859;DHT22;35426;30.698;104.050;2023-07-02T01:50:56;39.00;99.90
17859;DHT22;35426;30.698;104.050;2023-07-02T01:53:29;38.00;99.90
17859;DHT22;35426;30.698;104.050;2023-07-02T01:56:03;37.40;99.90
17859;DHT22;35426;30.698;104.050;2023-07-02T01:58:36;37.40;99.90
17859;DHT22;35426;30.698;104.050;2023-07-02T02:01:09;37.00;99.90
17859;DHT22;35426;30.698;104.050;2023-07-02T02:03:43;37.20;99.90
17859;DHT22;35426;30.698;104.050;2023-07-02T02:06:18;37.00;99.90
17859;DHT22;35426;30.698;104.050;2023-07-02T02:08:51;37.10;99.90
17859;DHT22;35426;30.698;104.050;2023-07-02T02:11:24;36.90;99.90
17859;DHT22;35426;30.698;104.050;2023-07-02T02:13:59;36.90;99.90
17859;DHT22;35426;30.698;104.050;2023-07-02T02:16:33;37.30;99.90
17859;DHT22;35426;30.698;104.050;2023-07-02T02:19:06;37.20;99.90
17859;DHT22;35426;30.698;104.050;2023-07-02T02:21:42;37.50;99.90
17859;DHT22;35426;30.698;104.050;2023-07-02T02:24:16;37.90;99.90
17859;DHT22;35426;30.698;104.050;2023-07-02T02:26:49;38.10;99.90
17859;DHT22;35426;30.698;104.050;2023-07-02T02:29:23;38.70;99.90
17859;DHT22;35426;30.698;104.050;2023-07-02T02:32:00;39.10;99.90
17859;DHT22;35426;30.698;104.050;2023-07-02T02:34:36;39.40;99.90
17859;DHT22;35426;30.698;104.050;2023-07-02T02:37:12;39.80;99.90
17859;DHT22;35426;30.698;104.050;2023-07-02T02:39:45;39.50;99.90
17859;DHT22;35426;30.698;104.050;2023-07-02T02:42:18;39.00;99.90
17859;DHT22;35426;30.698;104.050;2023-07-02T02:44:52;38.30;99.90
17859;DHT22;35426;30.698;104.050;2023-07-02T02:47:26;38.30;99.90
17859;DHT22;35426;30.698;104.050;2023-07-02T02:50:01;38.10;99.90
17859;DHT22;35426;30.698;104.050;2023-07-02T02:52:36;38.00;99.90
17859;DHT22;35426;30.698;104.050;2023-07-02T02:55:11;37.40;99.90
17859;DHT22;35426;30.698;104.050;2023-07-02T02:57:48;37.30;99.90
17859;DHT22;35426;30.698;104.050;2023-07-02T03:00:23;37.40;99.90
17859;DHT22;35426;30.698;104.050;2023-07-02T03:03:00;37.10;99.90
17859;DHT22;35426;30.698;104.050;2023-07-02T03:05:36;37.20;99.90
17859;DHT22;35426;30.698;104.050;2023-07-02T03:08:12;37.30;99.90
17859;DHT22;35426;30.698;104.050;2023-07-02T03:10:46;36.90;99.90
17859;DHT22;35426;30.698;104.050;2023-07-02T03:13:20;37.30;99.90
17859;DHT22;35426;30.698;104.050;2023-07-02T03:15:53;37.40;99.90
17859;DHT22;35426;30.698;104.050;2023-07-02T03:18:27;37.40;99.90
17859;DHT22;35426;30.698;104.050;2023-07-02T03:21:00;37.60;99.90
17859;DHT22;35426;30.698;104.050;2023-07-02T03:23:36;37.80;99.90
17859;DHT22;35426;30.698;104.050;2023-07-02T03:26:10;37.40;99.90
17859;DHT22;35426;30.698;104.050;2023-07-02T03:28:44;37.50;99.90
17859;DHT22;35426;30.698;104.050;2023-07-02T03:31:18;37.70;99.90
17859;DHT22;35426;30.698;104.050;2023-07-02T03:33:52;37.90;99.90
17859;DHT22;35426;30.698;104.050;2023-07-02T03:36:29;37.80;99.90
17859;DHT22;35426;30.698;104.050;2023-07-02T03:39:04;37.90;99.90
17859;DHT22;35426;30.698;104.050;2023-07-02T03:41:41;38.10;99.90
17859;DHT22;35426;30.698;104.050;2023-07-02T03:44:15;37.80;99.90
17859;DHT22;35426;30.698;104.050;2023-07-02T03:46:51;37.50;99.90
17859;DHT22;35426;30.698;104.050;2023-07-02T03:49:25;36.40;99.90
17859;DHT22;35426;30.698;104.050;2023-07-02T03:51:58;36.80;99.90
17859;DHT22;35426;30.698;104.050;2023-07-02T03:54:34;36.80;99.90
17859;DHT22;35426;30.698;104.050;2023-07-02T03:57:10;37.10;99.90
17859;DHT22;35426;30.698;104.050;2023-07-02T03:59:44;36.90;99.90
17859;DHT22;35426;30.698;104.050;2023-07-02T04:02:19;36.70;99.90
17859;DHT22;35426;30.698;104.050;2023-07-02T04:04:53;36.80;99.90
17859;DHT22;35426;30.698;104.050;2023-07-02T04:07:27;36.60;99.90
17859;DHT22;35426;30.698;104.050;2023-07-02T04:10:03;36.30;99.90
17859;DHT22;35426;30.698;104.050;2023-07-02T04:12:37;36.50;99.90
17859;DHT22;35426;30.698;104.050;2023-07-02T04:15:11;36.00;99.90
17859;DHT22;35426;30.698;104.050;2023-07-02T04:17:48;36.10;99.90
17859;DHT22;35426;30.698;104.050;2023-07-02T04:20:23;36.10;99.90
17859;DHT22;35426;30.698;104.050;2023-07-02T04:22:57;36.30;99.90
17859;DHT22;35426;30.698;104.050;2023-07-02T04:25:33;36.10;99.90
17859;DHT22;35426;30.698;104.050;2023-07-02T04:28:27;35.80;99.90
17859;DHT22;35426;30.698;104.050;2023-07-02T04:31:04;35.90;99.90
17859;DHT22;35426;30.698;104.050;2023-07-02T04:33:37;35.70;99.90
17859;DHT22;35426;30.698;104.050;2023-07-02T04:36:11;35.70;99.90
17859;DHT22;35426;30.698;104.050;2023-07-02T04:38:44;35.80;99.90
17859;DHT22;35426;30.698;104.050;2023-07-02T04:41:20;35.90;99.90
17859;DHT22;35426;30.698;104.050;2023-07-02T04:43:53;36.00;99.90
17859;DHT22;35426;30.698;104.050;2023-07-02T04:46:28;36.00;99.90
17859;DHT22;35426;30.698;104.050;2023-07-02T04:49:01;35.70;99.90
17859;DHT22;35426;30.698;104.050;2023-07-02T04:51:34;35.60;99.90
17859;DHT22;35426;30.698;104.050;2023-07-02T04:54:09;35.40;99.90
17859;DHT22;35426;30.698;104.050;2023-07-02T04:56:45;35.30;99.90
17859;DHT22;35426;30.698;104.050;2023-07-02T04:59:21;34.60;99.90
17859;DHT22;35426;30.698;104.050;2023-07-02T05:01:55;34.20;99.90
17859;DHT22;35426;30.698;104.050;2023-07-02T05:04:30;34.10;99.90
17859;DHT22;35426;30.698;104.050;2023-07-02T05:07:03;34.40;99.90
17859;DHT22;35426;30.698;104.050;2023-07-02T05:09:37;34.70;99.90
17859;DHT22;35426;30.698;104.050;2023-07-02T05:12:12;34.60;99.90
17859;DHT22;35426;30.698;104.050;2023-07-02T05:14:45;34.10;99.90
17859;DHT22;35426;30.698;104.050;2023-07-02T05:17:21;33.90;99.90
17859;DHT22;35426;30.698;104.050;2023-07-02T05:19:57;33.80;99.90
17859;DHT22;35426;30.698;104.050;2023-07-02T05:22:30;33.70;99.90
17859;DHT22;35426;30.698;104.050;2023-07-02T05:25:04;33.80;99.90
17859;DHT22;35426;30.698;104.050;2023-07-02T05:27:40;34.00;99.90
17859;DHT22;35426;30.698;104.050;2023-07-02T05:30:18;34.20;99.90
17859;DHT22;35426;30.698;104.050;2023-07-02T05:32:52;34.30;99.90
17859;DHT22;35426;30.698;104.050;2023-07-02T05:35:25;34.30;99.90
17859;DHT22;35426;30.698;104.050;2023-07-02T05:37:59;34.30;99.90
17859;DHT22;35426;30.698;104.050;2023-07-02T05:40:32;34.30;99.90
17859;DHT22;35426;30.698;104.050;2023-07-02T05:43:09;34.10;99.90
17859;DHT22;35426;30.698;104.050;2023-07-02T05:45:42;33.90;99.90
17859;DHT22;35426;30.698;104.050;2023-07-02T05:48:18;33.80;99.90
17859;DHT22;35426;30.698;104.050;2023-07-02T05:50:52;34.10;99.90
17859;DHT22;35426;30.698;104.050;2023-07-02T05:53:25;34.10;99.90
17859;DHT22;35426;30.698;104.050;2023-07-02T05:55:58;34.40;99.90
17859;DHT22;35426;30.698;104.050;2023-07-02T05:58:34;34.70;99.90
17859;DHT22;35426;30.698;104.050;2023-07-02T06:01:17;34.80;99.90
17859;DHT22;35426;30.698;104.050;2023-07-02T06:03:51;35.10;99.90
17859;DHT22;35426;30.698;104.050;2023-07-02T06:06:26;34.60;99.90
17859;DHT22;35426;30.698;104.050;2023-07-02T06:09:02;34.50;99.90
17859;DHT22;35426;30.698;104.050;2023-07-02T06:11:36;34.80;99.90
17859;DHT22;35426;30.698;104.050;2023-07-02T06:14:12;35.10;99.90
17859;DHT22;35426;30.698;104.050;2023-07-02T06:16:49;35.40;99.90
17859;DHT22;35426;30.698;104.050;2023-07-02T06:19:23;35.50;99.90
17859;DHT22;35426;30.698;104.050;2023-07-02T06:21:57;35.30;99.90
17859;DHT22;35426;30.698;104.050;2023-07-02T06:24:31;35.50;99.90
17859;DHT22;35426;30.698;104.050;2023-07-02T06:27:06;35.50;99.90
17859;DHT22;35426;30.698;104.050;2023-07-02T06:29:41;35.00;99.90
17859;DHT22;35426;30.698;104.050;2023-07-02T06:32:14;35.00;99.90
17859;DHT22;35426;30.698;104.050;2023-07-02T06:34:48;35.10;99.90
17859;DHT22;35426;30.698;104.050;2023-07-02T06:37:22;35.40;99.90
17859;DHT22;35426;30.698;104.050;2023-07-02T06:39:56;35.40;99.90
17859;DHT22;35426;30.698;104.050;2023-07-02T06:42:30;35.00;99.90
17859;DHT22;35426;30.698;104.050;2023-07-02T06:45:07;34.60;99.90
17859;DHT22;35426;30.698;104.050;2023-07-02T06:47:41;34.90;99.90
17859;DHT22;35426;30.698;104.050;2023-07-02T06:50:15;34.60;99.90
17859;DHT22;35426;30.698;104.050;2023-07-02T06:52:49;34.60;99.90
17859;DHT22;35426;30.698;104.050;2023-07-02T06:55:24;34.90;99.90
17859;DHT22;35426;30.698;104.050;2023-07-02T06:57:58;34.80;99.90
17859;DHT22;35426;30.698;104.050;2023-07-02T07:00:35;34.30;99.90
17859;DHT22;35426;30.698;104.050;2023-07-02T07:03:09;34.30;99.90
17859;DHT22;35426;30.698;104.050;2023-07-02T07:05:42;34.30;99.90
17859;DHT22;35426;30.698;104.050;2023-07-02T07:08:16;34.80;99.90
17859;DHT22;35426;30.698;104.050;2023-07-02T07:10:51;35.00;99.90
17859;DHT22;35426;30.698;104.050;2023-07-02T07:13:30;35.00;99.90
17859;DHT22;35426;30.698;104.050;2023-07-02T07:16:07;35.00;99.90
17859;DHT22;35426;30.698;104.050;2023-07-02T07:18:44;35.20;99.90
17859;DHT22;35426;30.698;104.050;2023-07-02T07:21:18;35.20;99.90
17859;DHT22;35426;30.698;104.050;2023-07-02T07:23:52;34.90;99.90
17859;DHT22;35426;30.698;104.050;2023-07-02T07:26:27;34.80;99.90
17859;DHT22;35426;30.698;104.050;2023-07-02T07:29:01;34.50;99.90
17859;DHT22;35426;30.698;104.050;2023-07-02T07:31:37;34.60;99.90
17859;DHT22;35426;30.698;104.050;2023-07-02T07:34:12;34.60;99.90
17859;DHT22;35426;30.698;104.050;2023-07-02T07:36:46;34.70;99.90
17859;DHT22;35426;30.698;104.050;2023-07-02T07:39:20;34.40;99.90
17859;DHT22;35426;30.698;104.050;2023-07-02T07:41:53;34.40;99.90
17859;DHT22;35426;30.698;104.050;2023-07-02T07:44:26;34.30;99.90
17859;DHT22;35426;30.698;104.050;2023-07-02T07:47:02;34.10;99.90
17859;DHT22;35426;30.698;104.050;2023-07-02T07:49:37;34.00;99.90
17859;DHT22;35426;30.698;104.050;2023-07-02T07:52:12;34.40;99.90
17859;DHT22;35426;30.698;104.050;2023-07-02T07:54:46;34.60;99.90
17859;DHT22;35426;30.698;104.050;2023-07-02T07:57:20;34.60;99.90
17859;DHT22;35426;30.698;104.050;2023-07-02T07:59:54;34.40;99.90
17859;DHT22;35426;30.698;104.050;2023-07-02T08:02:30;34.20;99.90
17859;DHT22;35426;30.698;104.050;2023-07-02T08:05:06;34.00;99.90
17859;DHT22;35426;30.698;104.050;2023-07-02T08:07:42;34.10;99.90
17859;DHT22;35426;30.698;104.050;2023-07-02T08:10:17;33.90;99.90
17859;DHT22;35426;30.698;104.050;2023-07-02T08:12:50;34.00;99.90
17859;DHT22;35426;30.698;104.050;2023-07-02T08:15:24;34.00;99.90
17859;DHT22;35426;30.698;104.050;2023-07-02T08:18:00;33.80;99.90
17859;DHT22;35426;30.698;104.050;2023-07-02T08:20:34;33.90;99.90
17859;DHT22;35426;30.698;104.050;2023-07-02T08:23:08;33.70;99.90
17859;DHT22;35426;30.698;104.050;2023-07-02T08:25:43;33.80;99.90
17859;DHT22;35426;30.698;104.050;2023-07-02T08:28:17;33.90;99.90
17859;DHT22;35426;30.698;104.050;2023-07-02T08:30:50;33.90;99.90
17859;DHT22;35426;30.698;104.050;2023-07-02T08:33:26;34.00;99.90
17859;DHT22;35426;30.698;104.050;2023-07-02T08:36:00;34.00;99.90
17859;DHT22;35426;30.698;104.050;2023-07-02T08:38:33;33.90;99.90
17859;DHT22;35426;30.698;104.050;2023-07-02T08:41:10;34.10;99.90
17859;DHT22;35426;30.698;104.050;2023-07-02T08:43:44;34.00;99.90
17859;DHT22;35426;30.698;104.050;2023-07-02T08:46:20;32.70;99.90
17859;DHT22;35426;30.698;104.050;2023-07-02T08:48:57;32.50;99.90
17859;DHT22;35426;30.698;104.050;2023-07-02T08:51:31;31.90;99.90
17859;DHT22;35426;30.698;104.050;2023-07-02T08:54:04;31.60;99.90
17859;DHT22;35426;30.698;104.050;2023-07-02T08:56:40;31.00;99.90
17859;DHT22;35426;30.698;104.050;2023-07-02T08:59:14;30.90;99.90
17859;DHT22;35426;30.698;104.050;2023-07-02T09:01:48;30.90;99.90
17859;DHT22;35426;30.698;104.050;2023-07-02T09:04:25;31.00;99.90
17859;DHT22;35426;30.698;104.050;2023-07-02T09:07:06;30.80;99.90
17859;DHT22;35426;30.698;104.050;2023-07-02T09:09:47;30.40;99.90
17859;DHT22;35426;30.698;104.050;2023-07-02T09:12:26;30.20;99.90
17859;DHT22;35426;30.698;104.050;2023-07-02T09:15:01;30.10;99.90
17859;DHT22;35426;30.698;104.050;2023-07-02T09:17:37;30.00;99.90
17859;DHT22;35426;30.698;104.050;2023-07-02T09:20:13;30.10;99.90
17859;DHT22;35426;30.698;104.050;2023-07-02T09:22:55;29.90;99.90
17859;DHT22;35426;30.698;104.050;2023-07-02T09:25:36;29.90;99.90
17859;DHT22;35426;30.698;104.050;2023-07-02T09:28:18;30.10;99.90
17859;DHT22;35426;30.698;104.050;2023-07-02T09:30:55;30.20;99.90
17859;DHT22;35426;30.698;104.050;2023-07-02T09:33:30;30.30;99.90
17859;DHT22;35426;30.698;104.050;2023-07-02T09:36:07;30.50;99.90
17859;DHT22;35426;30.698;104.050;2023-07-02T09:38:42;30.30;99.90
17859;DHT22;35426;30.698;104.050;2023-07-02T09:41:17;30.50;99.90
17859;DHT22;35426;30.698;104.050;2023-07-02T09:43:50;30.50;99.90
17859;DHT22;35426;30.698;104.050;2023-07-02T09:46:23;30.60;99.90
17859;DHT22;35426;30.698;104.050;2023-07-02T09:48:57;30.60;99.90
17859;DHT22;35426;30.698;104.050;2023-07-02T09:51:34;30.70;99.90
17859;DHT22;35426;30.698;104.050;2023-07-02T09:54:07;30.70;99.90
17859;DHT22;35426;30.698;104.050;2023-07-02T09:56:43;30.70;99.90
17859;DHT22;35426;30.698;104.050;2023-07-02T09:59:16;30.70;99.90
17859;DHT22;35426;30.698;104.050;2023-07-02T10:01:49;30.50;99.90
17859;DHT22;35426;30.698;104.050;2023-07-02T10:04:24;30.70;99.90
17859;DHT22;35426;30.698;104.050;2023-07-02T10:07:01;30.70;99.90
17859;DHT22;35426;30.698;104.050;2023-07-02T10:09:37;30.50;99.90
17859;DHT22;35426;30.698;104.050;2023-07-02T10:12:18;30.60;99.90
17859;DHT22;35426;30.698;104.050;2023-07-02T10:14:54;30.70;99.90
17859;DHT22;35426;30.698;104.050;2023-07-02T10:17:28;30.60;99.90
17859;DHT22;35426;30.698;104.050;2023-07-02T10:20:04;30.70;99.90
17859;DHT22;35426;30.698;104.050;2023-07-02T10:22:47;30.90;99.90
17859;DHT22;35426;30.698;104.050;2023-07-02T10:25:26;30.50;99.90
17859;DHT22;35426;30.698;104.050;2023-07-02T10:28:00;30.70;99.90
17859;DHT22;35426;30.698;104.050;2023-07-02T10:30:36;30.80;99.90
17859;DHT22;35426;30.698;104.050;2023-07-02T10:33:10;30.60;99.90
17859;DHT22;35426;30.698;104.050;2023-07-02T10:35:45;30.50;99.90
17859;DHT22;35426;30.698;104.050;2023-07-02T10:38:23;30.60;99.90
17859;DHT22;35426;30.698;104.050;2023-07-02T10:40:59;30.60;99.90
17859;DHT22;35426;30.698;104.050;2023-07-02T10:43:33;30.60;99.90
17859;DHT22;35426;30.698;104.050;2023-07-02T10:46:07;30.50;99.90
17859;DHT22;35426;30.698;104.050;2023-07-02T10:48:52;30.60;99.90
17859;DHT22;35426;30.698;104.050;2023-07-02T10:51:25;30.60;99.90
17859;DHT22;35426;30.698;104.050;2023-07-02T10:54:01;30.60;99.90
17859;DHT22;35426;30.698;104.050;2023-07-02T10:56:36;30.60;99.90
17859;DHT22;35426;30.698;104.050;2023-07-02T10:59:09;30.70;99.90
17859;DHT22;35426;30.698;104.050;2023-07-02T11:01:42;30.70;99.90
17859;DHT22;35426;30.698;104.050;2023-07-02T11:04:16;30.40;99.90
17859;DHT22;35426;30.698;104.050;2023-07-02T11:06:51;30.40;99.90
17859;DHT22;35426;30.698;104.050;2023-07-02T11:09:27;30.50;99.90
17859;DHT22;35426;30.698;104.050;2023-07-02T11:12:01;30.50;99.90
17859;DHT22;35426;30.698;104.050;2023-07-02T11:14:35;30.50;99.90
17859;DHT22;35426;30.698;104.050;2023-07-02T11:17:10;30.30;99.90
17859;DHT22;35426;30.698;104.050;2023-07-02T11:19:51;30.40;99.90
17859;DHT22;35426;30.698;104.050;2023-07-02T11:22:32;30.30;99.90
17859;DHT22;35426;30.698;104.050;2023-07-02T11:25:12;30.40;99.90
17859;DHT22;35426;30.698;104.050;2023-07-02T11:27:50;30.30;99.90
17859;DHT22;35426;30.698;104.050;2023-07-02T11:30:46;30.20;99.90
17859;DHT22;35426;30.698;104.050;2023-07-02T11:33:20;30.30;99.90
17859;DHT22;35426;30.698;104.050;2023-07-02T11:35:56;30.30;99.90
17859;DHT22;35426;30.698;104.050;2023-07-02T11:38:29;30.20;99.90
17859;DHT22;35426;30.698;104.050;2023-07-02T11:41:05;30.10;99.90
17859;DHT22;35426;30.698;104.050;2023-07-02T11:43:38;29.70;99.90
17859;DHT22;35426;30.698;104.050;2023-07-02T11:46:14;29.70;99.90
17859;DHT22;35426;30.698;104.050;2023-07-02T11:48:48;29.80;99.90
17859;DHT22;35426;30.698;104.050;2023-07-02T11:51:25;30.10;99.90
17859;DHT22;35426;30.698;104.050;2023-07-02T11:53:59;29.90;99.90
17859;DHT22;35426;30.698;104.050;2023-07-02T11:56:35;30.00;99.90
17859;DHT22;35426;30.698;104.050;2023-07-02T11:59:10;30.00;99.90
17859;DHT22;35426;30.698;104.050;2023-07-02T12:01:45;29.90;99.90
17859;DHT22;35426;30.698;104.050;2023-07-02T12:04:18;29.90;99.90
17859;DHT22;35426;30.698;104.050;2023-07-02T12:06:52;30.00;99.90
17859;DHT22;35426;30.698;104.050;2023-07-02T12:09:25;29.90;99.90
17859;DHT22;35426;30.698;104.050;2023-07-02T12:12:01;30.00;99.90
17859;DHT22;35426;30.698;104.050;2023-07-02T12:14:35;30.20;99.90
17859;DHT22;35426;30.698;104.050;2023-07-02T12:17:08;30.00;99.90
17859;DHT22;35426;30.698;104.050;2023-07-02T12:19:46;30.00;99.90
17859;DHT22;35426;30.698;104.050;2023-07-02T12:22:20;30.00;99.90
17859;DHT22;35426;30.698;104.050;2023-07-02T12:24:55;30.00;99.90
17859;DHT22;35426;30.698;104.050;2023-07-02T12:27:31;30.10;99.90
17859;DHT22;35426;30.698;104.050;2023-07-02T12:30:07;30.10;99.90
17859;DHT22;35426;30.698;104.050;2023-07-02T12:32:41;29.90;99.90
17859;DHT22;35426;30.698;104.050;2023-07-02T12:35:15;29.70;99.90
17859;DHT22;35426;30.698;104.050;2023-07-02T12:37:49;29.70;99.90
17859;DHT22;35426;30.698;104.050;2023-07-02T12:40:23;29.80;99.90
17859;DHT22;35426;30.698;104.050;2023-07-02T12:43:00;29.60;99.90
17859;DHT22;35426;30.698;104.050;2023-07-02T12:45:33;29.60;99.90
17859;DHT22;35426;30.698;104.050;2023-07-02T12:48:07;29.50;99.90
17859;DHT22;35426;30.698;104.050;2023-07-02T12:50:53;29.40;99.90
17859;DHT22;35426;30.698;104.050;2023-07-02T12:53:27;29.30;99.90
17859;DHT22;35426;30.698;104.050;2023-07-02T12:56:00;29.30;99.90
17859;DHT22;35426;30.698;104.050;2023-07-02T12:58:36;29.10;99.90
17859;DHT22;35426;30.698;104.050;2023-07-02T13:01:10;28.80;99.90
17859;DHT22;35426;30.698;104.050;2023-07-02T13:03:46;28.80;99.90
17859;DHT22;35426;30.698;104.050;2023-07-02T13:06:24;28.70;99.90
17859;DHT22;35426;30.698;104.050;2023-07-02T13:08:58;28.60;99.90
17859;DHT22;35426;30.698;104.050;2023-07-02T13:11:31;28.40;99.90
17859;DHT22;35426;30.698;104.050;2023-07-02T13:14:08;28.30;99.90
17859;DHT22;35426;30.698;104.050;2023-07-02T13:16:44;28.30;99.90
17859;DHT22;35426;30.698;104.050;2023-07-02T13:19:18;28.40;99.90
17859;DHT22;35426;30.698;104.050;2023-07-02T13:21:52;28.40;99.90
17859;DHT22;35426;30.698;104.050;2023-07-02T13:24:32;28.40;99.90
17859;DHT22;35426;30.698;104.050;2023-07-02T13:27:09;28.50;99.90
17859;DHT22;35426;30.698;104.050;2023-07-02T13:29:47;28.40;99.90
17859;DHT22;35426;30.698;104.050;2023-07-02T13:32:21;28.30;99.90
17859;DHT22;35426;30.698;104.050;2023-07-02T13:34:57;28.20;99.90
17859;DHT22;35426;30.698;104.050;2023-07-02T13:37:31;28.20;99.90
17859;DHT22;35426;30.698;104.050;2023-07-02T13:40:06;28.20;99.90
17859;DHT22;35426;30.698;104.050;2023-07-02T13:42:43;28.20;99.90
17859;DHT22;35426;30.698;104.050;2023-07-02T13:45:23;28.00;99.90
17859;DHT22;35426;30.698;104.050;2023-07-02T13:48:00;28.20;99.90
17859;DHT22;35426;30.698;104.050;2023-07-02T13:50:36;28.10;99.90
17859;DHT22;35426;30.698;104.050;2023-07-02T13:53:10;28.00;99.90
17859;DHT22;35426;30.698;104.050;2023-07-02T13:55:43;28.00;99.90
17859;DHT22;35426;30.698;104.050;2023-07-02T13:58:18;28.00;99.90
17859;DHT22;35426;30.698;104.050;2023-07-02T14:01:01;28.20;99.90
17859;DHT22;35426;30.698;104.050;2023-07-02T14:03:35;28.40;99.90
17859;DHT22;35426;30.698;104.050;2023-07-02T14:06:10;28.20;99.90
17859;DHT22;35426;30.698;104.050;2023-07-02T14:08:47;28.30;99.90
17859;DHT22;35426;30.698;104.050;2023-07-02T14:11:21;28.20;99.90
17859;DHT22;35426;30.698;104.050;2023-07-02T14:13:55;28.30;99.90
17859;DHT22;35426;30.698;104.050;2023-07-02T14:16:31;28.00;99.90
17859;DHT22;35426;30.698;104.050;2023-07-02T14:19:05;27.80;99.90
17859;DHT22;35426;30.698;104.050;2023-07-02T14:21:39;28.10;99.90
17859;DHT22;35426;30.698;104.050;2023-07-02T14:24:18;28.30;99.90
17859;DHT22;35426;30.698;104.050;2023-07-02T14:26:57;28.30;99.90
17859;DHT22;35426;30.698;104.050;2023-07-02T14:29:33;28.10;99.90
17859;DHT22;35426;30.698;104.050;2023-07-02T14:32:09;28.20;99.90
17859;DHT22;35426;30.698;104.050;2023-07-02T14:34:42;28.30;99.90
17859;DHT22;35426;30.698;104.050;2023-07-02T14:37:15;28.30;99.90
17859;DHT22;35426;30.698;104.050;2023-07-02T14:39:50;28.40;99.90
17859;DHT22;35426;30.698;104.050;2023-07-02T14:42:35;28.50;99.90
17859;DHT22;35426;30.698;104.050;2023-07-02T14:45:09;28.40;99.90
17859;DHT22;35426;30.698;104.050;2023-07-02T14:47:48;28.10;99.90
17859;DHT22;35426;30.698;104.050;2023-07-02T14:50:23;28.10;99.90
17859;DHT22;35426;30.698;104.050;2023-07-02T14:52:59;27.70;99.90
17859;DHT22;35426;30.698;104.050;2023-07-02T14:55:32;27.50;99.90
17859;DHT22;35426;30.698;104.050;2023-07-02T14:58:08;27.50;99.90
17859;DHT22;35426;30.698;104.050;2023-07-02T15:00:45;27.30;99.90
17859;DHT22;35426;30.698;104.050;2023-07-02T15:03:22;27.50;99.90
17859;DHT22;35426;30.698;104.050;2023-07-02T15:06:07;27.50;99.90
17859;DHT22;35426;30.698;104.050;2023-07-02T15:08:42;27.40;99.90
17859;DHT22;35426;30.698;104.050;2023-07-02T15:11:19;27.60;99.90
17859;DHT22;35426;30.698;104.050;2023-07-02T15:13:53;27.70;99.90
17859;DHT22;35426;30.698;104.050;2023-07-02T15:16:26;27.50;99.90
17859;DHT22;35426;30.698;104.050;2023-07-02T15:19:03;27.60;99.90
17859;DHT22;35426;30.698;104.050;2023-07-02T15:21:38;27.70;99.90
17859;DHT22;35426;30.698;104.050;2023-07-02T15:24:12;27.60;99.90
17859;DHT22;35426;30.698;104.050;2023-07-02T15:26:47;27.70;99.90
17859;DHT22;35426;30.698;104.050;2023-07-02T15:29:21;27.70;99.90
17859;DHT22;35426;30.698;104.050;2023-07-02T15:31:55;27.80;99.90
17859;DHT22;35426;30.698;104.050;2023-07-02T15:34:32;28.00;99.90
17859;DHT22;35426;30.698;104.050;2023-07-02T15:37:06;28.10;99.90
17859;DHT22;35426;30.698;104.050;2023-07-02T15:39:40;28.20;99.90
17859;DHT22;35426;30.698;104.050;2023-07-02T15:42:16;28.20;99.90
17859;DHT22;35426;30.698;104.050;2023-07-02T15:44:51;28.20;99.90
17859;DHT22;35426;30.698;104.050;2023-07-02T15:47:25;28.30;99.90
17859;DHT22;35426;30.698;104.050;2023-07-02T15:50:04;28.30;99.90